Time;durP1;ratioP1;P1;durP2;ratioP2;P2;SDS_P1;SDS_P2;PMS_P1;PMS_P2;Temp;Humidity;BMP_temperature;BMP_pressure;BME280_temperature;BME280_humidity;BME280_pressure;Samples;Min_cycle;Max_cycle;Signal;HPM_P1;HPM_P2
2023/08/30 00:02:16;;;;;;;0.00;0.00;;;11.80;99.90;;;;;;20993706;28;20043;-63
2023/08/30 00:12:18;;;;;;;0.00;0.00;;;11.50;99.90;;;;;;20967703;28;20047;-63
2023/08/30 00:22:22;;;;;;;0.08;0.00;;;11.10;99.90;;;;;;21013925;28;20068;-62
2023/08/30 00:32:23;;;;;;;0.00;0.00;;;10.90;99.90;;;;;;20975642;28;20450;-63
2023/08/30 00:42:27;;;;;;;0.00;0.00;;;10.60;99.90;;;;;;21054037;28;20716;-53
2023/08/30 00:52:29;;;;;;;0.35;0.00;;;10.70;99.90;;;;;;21014947;28;20031;-52
2023/08/30 01:02:32;;;;;;;0.10;0.00;;;10.70;99.90;;;;;;21021547;28;20041;-63
2023/08/30 01:12:48;;;;;;;0.00;0.00;;;10.70;99.90;;;;;;21015881;28;20032;-65
2023/08/30 01:23:03;;;;;;;0.00;0.00;;;10.80;99.90;;;;;;21020756;28;20110;-54
2023/08/30 01:33:05;;;;;;;0.25;0.00;;;10.90;99.90;;;;;;21008522;28;20036;-63
2023/08/30 01:43:10;;;;;;;0.30;0.00;;;10.90;99.90;;;;;;21048568;28;20032;-55
2023/08/30 01:53:13;;;;;;;0.00;0.00;;;10.90;99.90;;;;;;21049285;28;20110;-64
2023/08/30 02:03:15;;;;;;;0.03;0.00;;;10.90;99.90;;;;;;21012729;28;20032;-64
2023/08/30 02:13:26;;;;;;;0.00;0.00;;;11.10;99.90;;;;;;21044380;28;20028;-63
2023/08/30 02:23:28;;;;;;;0.00;0.00;;;11.00;99.90;;;;;;21028171;28;20028;-51
2023/08/30 02:33:29;;;;;;;0.38;0.00;;;11.00;99.90;;;;;;21005622;28;20032;-63
2023/08/30 02:43:32;;;;;;;0.00;0.00;;;11.00;99.90;;;;;;21033207;28;20024;-63
2023/08/30 02:53:34;;;;;;;0.00;0.00;;;11.10;99.90;;;;;;21026260;28;20039;-55
2023/08/30 03:03:36;;;;;;;0.30;0.00;;;11.30;99.90;;;;;;21045332;28;20101;-59
2023/08/30 03:13:38;;;;;;;0.00;0.00;;;11.10;99.90;;;;;;20998131;28;20035;-57
2023/08/30 03:23:41;;;;;;;0.00;0.00;;;11.10;99.90;;;;;;21001386;28;20032;-62
2023/08/30 03:33:45;;;;;;;0.00;0.00;;;11.10;99.90;;;;;;20973120;28;20558;-58
2023/08/30 03:43:48;;;;;;;0.00;0.00;;;11.00;99.90;;;;;;20997774;28;20425;-63
2023/08/30 03:53:50;;;;;;;0.00;0.00;;;11.00;99.90;;;;;;21020927;28;20036;-63
2023/08/30 04:03:51;;;;;;;1.25;0.00;;;10.90;99.90;;;;;;21024724;28;20113;-63
2023/08/30 04:13:53;;;;;;;0.00;0.00;;;10.90;99.90;;;;;;21000818;28;20054;-61
2023/08/30 04:23:55;;;;;;;0.00;0.00;;;10.90;99.90;;;;;;21005220;28;20101;-55
2023/08/30 04:33:57;;;;;;;0.10;0.00;;;11.00;99.90;;;;;;20971667;28;20139;-62
2023/08/30 04:43:59;;;;;;;0.00;0.00;;;10.90;99.90;;;;;;21008051;28;20036;-52
2023/08/30 04:54:01;;;;;;;0.73;0.00;;;10.90;99.90;;;;;;21000545;28;20043;-53
2023/08/30 05:04:05;;;;;;;0.10;0.00;;;10.90;99.90;;;;;;21009881;28;20044;-52
2023/08/30 05:14:10;;;;;;;0.20;0.00;;;10.70;99.90;;;;;;20997759;28;20507;-63
2023/08/30 05:24:12;;;;;;;0.00;0.00;;;10.30;99.90;;;;;;21014532;28;20560;-63
2023/08/30 05:34:14;;;;;;;0.00;0.00;;;10.30;99.90;;;;;;20975430;28;20032;-63
2023/08/30 05:44:35;;;;;;;0.10;0.00;;;10.50;99.90;;;;;;21024874;28;20040;-54
2023/08/30 05:54:38;;;;;;;0.00;0.00;;;10.90;99.90;;;;;;21001372;28;20032;-63
2023/08/30 06:04:39;;;;;;;0.35;0.00;;;11.20;99.90;;;;;;21010933;28;20044;-64
2023/08/30 06:14:43;;;;;;;0.00;0.00;;;11.50;99.90;;;;;;20994758;28;20032;-64
2023/08/30 06:24:45;;;;;;;0.88;0.00;;;11.70;99.90;;;;;;21001112;28;20032;-64
2023/08/30 06:34:46;;;;;;;0.00;0.00;;;11.90;99.90;;;;;;20990576;28;20099;-63
2023/08/30 06:44:48;;;;;;;0.00;0.00;;;11.80;99.90;;;;;;21001240;28;20485;-64
2023/08/30 06:54:50;;;;;;;0.00;0.00;;;12.30;99.90;;;;;;21012223;28;20035;-64
2023/08/30 07:04:52;;;;;;;0.45;0.00;;;12.40;99.90;;;;;;21013767;28;20040;-63
2023/08/30 07:14:54;;;;;;;0.00;0.00;;;12.60;99.90;;;;;;20996059;28;20024;-63
2023/08/30 07:24:55;;;;;;;0.00;0.00;;;13.00;99.90;;;;;;20994614;28;20040;-56
2023/08/30 07:34:57;;;;;;;0.00;0.00;;;13.30;99.90;;;;;;21025452;28;20029;-61
2023/08/30 07:44:59;;;;;;;0.40;0.00;;;13.60;99.90;;;;;;20985992;28;20031;-64
2023/08/30 07:55:01;;;;;;;0.63;0.00;;;14.10;99.90;;;;;;21026089;28;20058;-64
2023/08/30 08:05:03;;;;;;;0.00;0.00;;;15.00;99.90;;;;;;21034689;28;20059;-64
2023/08/30 08:15:06;;;;;;;0.00;0.00;;;15.20;99.30;;;;;;21013900;28;20032;-56
2023/08/30 08:25:09;;;;;;;0.00;0.00;;;15.30;98.40;;;;;;21024947;28;20039;-64
2023/08/30 08:35:11;;;;;;;1.35;0.00;;;16.80;99.90;;;;;;21002035;28;20099;-57
2023/08/30 08:45:16;;;;;;;0.57;0.00;;;17.90;98.70;;;;;;21007234;28;20033;-57
2023/08/30 08:55:18;;;;;;;0.00;0.00;;;18.30;98.40;;;;;;21015610;28;20093;-63
2023/08/30 09:05:20;;;;;;;0.10;0.00;;;18.50;95.80;;;;;;21010959;28;20044;-61
2023/08/30 09:15:30;;;;;;;0.00;0.00;;;17.60;96.50;;;;;;20995695;28;20048;-62
2023/08/30 09:25:32;;;;;;;0.00;0.00;;;17.90;93.90;;;;;;21024835;28;20126;-62
2023/08/30 09:35:44;;;;;;;0.10;0.00;;;17.00;93.60;;;;;;20997390;28;20630;-61
2023/08/30 09:45:46;;;;;;;0.00;0.00;;;17.20;94.70;;;;;;21007838;28;20384;-61
2023/08/30 09:55:49;;;;;;;0.00;0.00;;;17.40;93.80;;;;;;20995474;28;20029;-60
2023/08/30 10:05:53;;;;;;;0.00;0.00;;;18.40;98.30;;;;;;21014655;28;20045;-60
2023/08/30 10:16:03;;;;;;;0.28;0.00;;;20.00;99.10;;;;;;21000595;28;20090;-60
2023/08/30 10:26:06;;;;;;;0.90;0.10;;;21.40;98.20;;;;;;21017923;28;20028;-60
2023/08/30 10:36:08;;;;;;;0.30;0.10;;;22.00;96.40;;;;;;20977921;28;20033;-62
2023/08/30 10:46:11;;;;;;;1.33;0.10;;;21.10;96.50;;;;;;20996295;28;20070;-62
2023/08/30 10:56:13;;;;;;;1.25;0.30;;;20.20;99.40;;;;;;21010165;28;20032;-62
2023/08/30 11:06:17;;;;;;;0.10;0.10;;;19.90;99.40;;;;;;21019611;28;20036;-63
2023/08/30 11:16:22;;;;;;;2.22;0.20;;;18.50;99.90;;;;;;21008110;28;20062;-63
2023/08/30 11:26:24;;;;;;;3.17;0.55;;;17.60;99.90;;;;;;20999593;28;20032;-63
2023/08/30 11:36:28;;;;;;;1.17;0.40;;;17.70;99.90;;;;;;20993782;28;20489;-62
2023/08/30 11:46:31;;;;;;;1.38;0.60;;;17.90;99.90;;;;;;20989346;28;20125;-62
2023/08/30 11:56:34;;;;;;;1.02;0.60;;;18.10;99.90;;;;;;21015681;28;20039;-62
2023/08/30 12:06:36;;;;;;;0.80;0.50;;;17.90;99.90;;;;;;20985908;28;20426;-55
2023/08/30 12:16:40;;;;;;;0.70;0.45;;;19.10;99.90;;;;;;21010071;28;20063;-60
2023/08/30 12:26:41;;;;;;;2.33;0.52;;;18.80;99.90;;;;;;21018545;28;20393;-62
2023/08/30 12:36:43;;;;;;;1.35;0.70;;;17.90;99.90;;;;;;21007045;28;20093;-63
2023/08/30 12:46:45;;;;;;;0.73;0.60;;;17.80;99.90;;;;;;21006165;28;20040;-62
2023/08/30 12:56:47;;;;;;;0.88;0.50;;;17.50;99.90;;;;;;20999352;28;20036;-62
2023/08/30 13:06:49;;;;;;;1.63;0.40;;;16.90;99.90;;;;;;21015583;28;20106;-62
2023/08/30 13:16:52;;;;;;;1.48;0.80;;;17.60;99.90;;;;;;20998408;28;20062;-62
2023/08/30 13:26:54;;;;;;;0.45;0.30;;;19.20;99.90;;;;;;21024235;28;20033;-63
2023/08/30 13:36:56;;;;;;;1.13;0.40;;;21.30;99.40;;;;;;21007778;28;20047;-62
2023/08/30 13:46:58;;;;;;;1.05;0.40;;;20.10;98.60;;;;;;21008159;28;20024;-53
2023/08/30 13:56:59;;;;;;;2.60;0.70;;;19.20;99.90;;;;;;21021279;28;20024;-62
2023/08/30 14:07:01;;;;;;;0.90;0.68;;;18.90;99.90;;;;;;21021796;28;20189;-62
2023/08/30 14:17:03;;;;;;;1.20;0.80;;;18.20;99.90;;;;;;21023228;28;20028;-62
2023/08/30 14:27:04;;;;;;;4.13;1.50;;;17.80;99.90;;;;;;20997346;28;20423;-62
2023/08/30 14:37:06;;;;;;;3.67;1.98;;;18.00;99.90;;;;;;21004070;28;20089;-62
2023/08/30 14:47:08;;;;;;;3.00;2.50;;;17.90;99.90;;;;;;20990577;28;20032;-61
2023/08/30 14:57:10;;;;;;;3.80;2.30;;;17.90;99.90;;;;;;21003461;28;20081;-61
2023/08/30 15:07:11;;;;;;;2.92;2.47;;;17.30;99.90;;;;;;20996677;28;20048;-60
2023/08/30 15:17:15;;;;;;;3.67;2.97;;;17.00;99.90;;;;;;20994707;28;20028;-61
2023/08/30 15:27:17;;;;;;;4.65;4.10;;;16.80;99.90;;;;;;20994569;28;20067;-60
2023/08/30 15:37:19;;;;;;;6.80;3.72;;;16.40;99.90;;;;;;20998968;28;20078;-60
2023/08/30 15:47:20;;;;;;;4.78;3.67;;;16.10;99.90;;;;;;21010105;28;20036;-57
2023/08/30 15:57:22;;;;;;;6.70;3.70;;;15.90;99.90;;;;;;21009918;28;20039;-59
2023/08/30 16:07:24;;;;;;;4.38;3.58;;;15.80;99.90;;;;;;21017205;28;20036;-60
2023/08/30 16:17:26;;;;;;;4.70;3.70;;;15.60;99.90;;;;;;20998058;28;20051;-50
2023/08/30 16:27:28;;;;;;;6.05;4.00;;;15.10;99.90;;;;;;21021351;28;20027;-60
2023/08/30 16:37:29;;;;;;;5.75;4.32;;;14.70;99.90;;;;;;21026938;28;20046;-60
2023/08/30 16:47:31;;;;;;;7.55;5.50;;;14.30;99.90;;;;;;20984759;28;20070;-61
2023/08/30 16:57:33;;;;;;;19.15;7.88;;;13.90;99.90;;;;;;21014676;28;20469;-47
2023/08/30 17:07:34;;;;;;;19.88;11.40;;;13.20;99.90;;;;;;21028867;28;20117;-59
2023/08/30 17:17:36;;;;;;;27.48;15.00;;;12.60;99.90;;;;;;21026049;28;20089;-58
2023/08/30 17:27:39;;;;;;;21.23;18.10;;;12.20;99.90;;;;;;21000064;28;20062;-47
2023/08/30 17:37:41;;;;;;;19.48;17.55;;;12.00;99.90;;;;;;21042352;28;20031;-56
2023/08/30 17:47:43;;;;;;;15.98;14.38;;;12.10;99.90;;;;;;21009036;28;20043;-59
2023/08/30 17:57:44;;;;;;;11.52;10.35;;;12.30;99.90;;;;;;21015891;28;20032;-59
2023/08/30 18:07:46;;;;;;;14.52;13.15;;;12.40;99.90;;;;;;21033144;28;20048;-60
2023/08/30 18:17:49;;;;;;;16.33;14.43;;;12.40;99.90;;;;;;21047343;28;20049;-59
2023/08/30 18:27:50;;;;;;;17.02;14.35;;;12.40;99.90;;;;;;21046188;28;20028;-58
2023/08/30 18:37:52;;;;;;;16.90;15.18;;;12.40;99.90;;;;;;21004255;28;20028;-50
2023/08/30 18:47:55;;;;;;;14.82;13.32;;;12.30;99.90;;;;;;21045329;28;20085;-58
2023/08/30 18:57:57;;;;;;;14.60;13.07;;;12.40;99.90;;;;;;21044173;28;20477;-58
2023/08/30 19:07:58;;;;;;;15.55;13.95;;;12.40;99.90;;;;;;20998817;28;20108;-49
2023/08/30 19:18:00;;;;;;;11.93;10.73;;;12.30;99.90;;;;;;20971485;28;20074;-50
2023/08/30 19:28:04;;;;;;;10.70;9.68;;;12.20;99.90;;;;;;20974590;28;20094;-58
2023/08/30 19:38:06;;;;;;;10.75;9.75;;;12.30;99.90;;;;;;21041233;28;20089;-57
2023/08/30 19:48:10;;;;;;;9.38;8.48;;;12.30;99.90;;;;;;21029197;28;20393;-58
2023/08/30 19:58:11;;;;;;;10.00;9.05;;;12.30;99.90;;;;;;21039523;28;20397;-58
2023/08/30 20:08:15;;;;;;;11.25;10.07;;;12.20;99.90;;;;;;21056994;28;20128;-51
2023/08/30 20:18:16;;;;;;;14.20;12.55;;;12.20;99.90;;;;;;20990311;28;20106;-58
2023/08/30 20:28:18;;;;;;;15.00;13.50;;;12.10;99.90;;;;;;21014150;28;20082;-58
2023/08/30 20:38:21;;;;;;;15.40;13.80;;;12.00;99.90;;;;;;21011578;28;20059;-48
2023/08/30 20:48:24;;;;;;;12.88;11.57;;;11.90;99.90;;;;;;20976875;28;20408;-59
2023/08/30 20:58:26;;;;;;;11.85;10.65;;;11.80;99.90;;;;;;21035516;28;20036;-59
2023/08/30 21:08:27;;;;;;;15.57;14.07;;;12.00;99.90;;;;;;21007179;28;20070;-58
2023/08/30 21:18:29;;;;;;;41.83;32.50;;;12.00;99.90;;;;;;21027143;28;20035;-52
2023/08/30 21:28:32;;;;;;;101.30;66.13;;;11.80;99.90;;;;;;20998886;28;20037;-58
2023/08/30 21:38:33;;;;;;;27.58;23.08;;;11.70;99.90;;;;;;21039393;28;20042;-58
2023/08/30 21:48:35;;;;;;;24.42;21.85;;;11.70;99.90;;;;;;21007006;28;20032;-58
2023/08/30 21:58:37;;;;;;;26.83;22.08;;;11.60;99.90;;;;;;21010723;28;20048;-55
2023/08/30 22:08:39;;;;;;;22.45;20.15;;;11.60;99.90;;;;;;21048600;28;20477;-56
2023/08/30 22:18:40;;;;;;;30.08;26.48;;;11.60;99.90;;;;;;20988249;28;20390;-56
2023/08/30 22:28:42;;;;;;;336.65;260.75;;;11.60;99.90;;;;;;21004953;28;20036;-55
2023/08/30 22:38:44;;;;;;;34.92;26.73;;;11.50;99.90;;;;;;21045381;28;20035;-58
2023/08/30 22:48:46;;;;;;;79.40;55.33;;;11.70;99.90;;;;;;21004942;28;20460;-58
2023/08/30 22:58:50;;;;;;;28.95;25.67;;;11.70;99.90;;;;;;21043434;28;20109;-51
2023/08/30 23:08:52;;;;;;;29.08;25.63;;;11.60;99.90;;;;;;21034652;28;20042;-58
2023/08/30 23:18:53;;;;;;;27.92;24.92;;;11.50;99.90;;;;;;20964553;28;20033;-58
2023/08/30 23:28:55;;;;;;;30.13;25.52;;;11.60;99.90;;;;;;21041753;28;20034;-58
2023/08/30 23:38:57;;;;;;;61.67;49.47;;;11.60;99.90;;;;;;21002719;28;21217;-58
2023/08/30 23:48:58;;;;;;;35.55;29.90;;;11.40;99.90;;;;;;21022307;28;20124;-59
2023/08/30 23:59:01;;;;;;;35.03;30.15;;;11.40;99.90;;;;;;21033284;28;20053;-48
